Powersville, Georgia
Current Conditions -  °F | °C
As of 10:53 AM on Thursday 23 Oct 2014 (Local Time) from KMCN Reporting Station
Clear Clear  
Wind Chill: 14°   Ceiling: Unl
Heat Index: 14°   Visibility: 10mi
Dew Point:   Wind: 5mph
Humidity: 57%   Direction: NA
Pressure: 30.15"   Gusts: NA
Location:  32.6425°N, 83.775°W
Report Text: KMCN 231453Z VRB04KT 10SM CLR 14/06 A3015 RMK AO2 SLP208 T01390056 50008
Loading
Personal Weather Stations






























Interactive Weather Map
Tropical Storm Tracking
New forecast layout! Learn more

10-Day Weather Forecast

Advertisements
Track Severe Weather on mobile